createdAt,value
2023-01-17T00:00:36.929Z,3.53
2023-01-17T00:03:04.731Z,2.57
2023-01-17T00:05:50.166Z,3.23
2023-01-17T00:08:35.414Z,2.53
2023-01-17T00:11:02.473Z,2.70
2023-01-17T00:13:29.433Z,2.57
2023-01-17T00:15:56.318Z,2.63
2023-01-17T00:18:23.291Z,1.73
2023-01-17T00:21:08.544Z,2.17
2023-01-17T00:23:54.024Z,1.47
2023-01-17T00:26:21.124Z,0.93
2023-01-17T00:28:48.038Z,2.70
2023-01-17T00:31:16.700Z,1.87
2023-01-17T00:33:43.544Z,2.67
2023-01-17T00:36:10.953Z,2.13
2023-01-17T00:38:39.620Z,1.60
2023-01-17T00:41:09.550Z,1.23
2023-01-17T00:43:55.350Z,1.87
2023-01-17T00:46:41.226Z,3.57
2023-01-17T00:49:27.048Z,1.47
2023-01-17T00:52:12.543Z,2.70
2023-01-17T00:54:58.178Z,1.70
2023-01-17T00:57:43.616Z,2.20
2023-01-17T01:00:29.329Z,2.93
2023-01-17T01:03:14.873Z,2.27
2023-01-17T01:06:00.187Z,1.03
2023-01-17T01:08:47.719Z,2.83
2023-01-17T01:11:39.017Z,1.73
2023-01-17T01:14:26.634Z,2.53
2023-01-17T01:17:11.949Z,2.57
2023-01-17T01:19:57.514Z,2.10
2023-01-17T01:22:42.760Z,0.93
2023-01-17T01:25:28.333Z,2.90
2023-01-17T01:28:25.668Z,1.63
2023-01-17T01:31:11.163Z,2.03
2023-01-17T01:33:38.126Z,4.27
2023-01-17T01:36:08.176Z,1.80
2023-01-17T01:38:35.186Z,1.33
2023-01-17T01:41:02.184Z,2.77
2023-01-17T01:43:44.470Z,2.90
2023-01-17T01:46:46.023Z,2.93
2023-01-17T01:49:21.382Z,1.83
2023-01-17T01:51:54.288Z,1.37
2023-01-17T01:54:35.403Z,1.73
2023-01-17T01:57:04.965Z,1.27
2023-01-17T01:59:33.494Z,2.03
2023-01-17T02:02:00.616Z,1.53
2023-01-17T02:04:28.777Z,1.87
2023-01-17T02:07:08.290Z,1.83
2023-01-17T02:09:35.449Z,2.27
2023-01-17T02:12:03.877Z,2.60
2023-01-17T02:14:31.000Z,1.73
2023-01-17T02:17:30.119Z,1.63
2023-01-17T02:20:28.804Z,1.23
2023-01-17T02:23:14.391Z,1.40
2023-01-17T02:26:24.746Z,2.03
2023-01-17T02:29:17.868Z,1.03
2023-01-17T02:31:58.186Z,1.60
2023-01-17T02:34:30.311Z,1.70
2023-01-17T02:37:34.861Z,1.27
2023-01-17T02:40:07.888Z,3.37
2023-01-17T02:42:40.031Z,0.87
2023-01-17T02:45:08.272Z,2.13
2023-01-17T02:47:35.201Z,2.00
2023-01-17T02:50:15.495Z,1.50
2023-01-17T02:53:00.462Z,2.80
2023-01-17T02:55:27.998Z,1.03
2023-01-17T02:58:36.300Z,1.93
2023-01-17T03:01:30.337Z,1.90
2023-01-17T03:04:09.450Z,2.37
2023-01-17T03:06:56.336Z,1.00
2023-01-17T03:09:25.551Z,1.20
2023-01-17T03:11:53.202Z,2.07
2023-01-17T03:14:20.066Z,1.57
2023-01-17T03:16:47.471Z,1.73
2023-01-17T03:19:16.167Z,1.20
2023-01-17T03:21:43.061Z,3.33
2023-01-17T03:24:10.146Z,2.30
2023-01-17T03:26:37.010Z,2.63
2023-01-17T03:29:03.863Z,1.63
2023-01-17T03:31:30.697Z,1.63
2023-01-17T03:33:57.780Z,1.70
2023-01-17T03:36:24.633Z,1.90
2023-01-17T03:38:51.456Z,1.73
2023-01-17T03:41:18.321Z,0.83
2023-01-17T03:43:45.410Z,1.20
2023-01-17T03:46:25.053Z,1.60
2023-01-17T03:48:52.395Z,0.87
2023-01-17T03:51:19.334Z,1.10
2023-01-17T03:53:47.029Z,1.60
2023-01-17T03:56:14.675Z,1.63
2023-01-17T03:58:41.693Z,0.93
2023-01-17T04:01:09.214Z,1.60
2023-01-17T04:03:36.064Z,0.90
2023-01-17T04:06:02.937Z,1.17
2023-01-17T04:08:30.728Z,0.97
2023-01-17T04:10:57.555Z,0.90
2023-01-17T04:13:24.472Z,1.13
2023-01-17T04:15:51.887Z,1.33
2023-01-17T04:18:20.358Z,1.50
2023-01-17T04:20:47.622Z,0.90
2023-01-17T04:23:14.539Z,0.67
2023-01-17T04:25:41.321Z,1.27
2023-01-17T04:28:08.827Z,1.30
2023-01-17T04:30:35.769Z,1.97
2023-01-17T04:33:03.526Z,0.63
2023-01-17T04:35:33.384Z,1.50
2023-01-17T04:38:00.998Z,1.13
2023-01-17T04:40:29.620Z,1.97
2023-01-17T04:42:58.017Z,1.23
2023-01-17T04:45:24.913Z,1.93
2023-01-17T04:47:51.854Z,1.70
2023-01-17T04:50:19.180Z,1.00
2023-01-17T04:52:46.211Z,1.03
2023-01-17T04:55:13.062Z,0.70
2023-01-17T04:57:39.953Z,1.07
2023-01-17T05:00:07.517Z,1.03
2023-01-17T05:02:34.461Z,0.77
2023-01-17T05:05:01.409Z,0.93
2023-01-17T05:07:28.310Z,0.67
2023-01-17T05:09:55.127Z,1.13
2023-01-17T05:12:21.965Z,1.33
2023-01-17T05:14:48.844Z,0.90
2023-01-17T05:17:15.656Z,0.30
2023-01-17T05:19:42.549Z,0.93
2023-01-17T05:22:15.557Z,0.47
2023-01-17T05:24:47.495Z,0.70
2023-01-17T05:27:14.932Z,0.20
2023-01-17T05:29:41.869Z,0.50
2023-01-17T05:32:08.876Z,0.23
2023-01-17T05:34:35.735Z,0.80
2023-01-17T05:37:02.639Z,0.63
2023-01-17T05:39:31.065Z,0.60
2023-01-17T05:41:58.443Z,0.50
2023-01-17T05:44:27.441Z,1.17
2023-01-17T05:46:54.823Z,0.40
2023-01-17T05:49:21.712Z,1.00
2023-01-17T05:51:48.564Z,0.73
2023-01-17T05:54:15.398Z,0.50
2023-01-17T05:56:42.257Z,0.83
2023-01-17T05:59:09.102Z,0.60
2023-01-17T06:01:35.898Z,0.77
2023-01-17T06:04:02.754Z,1.07
2023-01-17T06:06:29.647Z,0.60
2023-01-17T06:08:56.518Z,0.53
2023-01-17T06:11:23.349Z,1.27
2023-01-17T06:13:50.203Z,0.87
2023-01-17T06:16:17.072Z,0.90
2023-01-17T06:18:43.898Z,1.07
2023-01-17T06:21:10.684Z,1.43
2023-01-17T06:23:37.504Z,0.50
2023-01-17T06:26:04.990Z,1.37
2023-01-17T06:28:31.996Z,0.77
2023-01-17T06:31:00.054Z,1.33
2023-01-17T06:33:27.147Z,1.10
2023-01-17T06:35:54.854Z,1.17
2023-01-17T06:38:22.053Z,0.97
2023-01-17T06:40:49.370Z,1.00
2023-01-17T06:43:16.276Z,0.93
2023-01-17T06:45:43.140Z,0.30
2023-01-17T06:48:09.969Z,0.20
2023-01-17T06:50:37.072Z,0.67
2023-01-17T06:53:06.215Z,0.67
2023-01-17T06:55:34.444Z,0.10
2023-01-17T06:58:02.968Z,0.30
2023-01-17T07:00:31.858Z,0.87
2023-01-17T07:02:58.854Z,0.43
2023-01-17T07:05:27.467Z,0.20
2023-01-17T07:07:54.940Z,0.43
2023-01-17T07:10:22.142Z,0.33
2023-01-17T07:12:49.029Z,0.43
2023-01-17T07:15:16.009Z,0.70
2023-01-17T07:17:42.832Z,0.47
2023-01-17T07:20:10.268Z,0.30
2023-01-17T07:22:37.879Z,0.40
2023-01-17T07:25:05.564Z,0.37
2023-01-17T07:27:33.599Z,0.60
2023-01-17T07:30:00.888Z,0.33
2023-01-17T07:32:28.708Z,0.53
2023-01-17T07:34:57.676Z,1.03
2023-01-17T07:37:26.411Z,0.20
2023-01-17T07:39:54.606Z,0.63
2023-01-17T07:42:24.047Z,1.10
2023-01-17T07:44:51.277Z,0.30
2023-01-17T07:47:19.537Z,0.37
2023-01-17T07:49:46.424Z,0.73
2023-01-17T07:52:13.256Z,0.50
2023-01-17T07:54:40.076Z,0.30
2023-01-17T07:57:11.918Z,0.70
2023-01-17T07:59:38.755Z,0.43
2023-01-17T08:02:05.944Z,0.43
2023-01-17T08:04:35.389Z,0.47
2023-01-17T08:07:02.584Z,0.67
2023-01-17T08:09:29.666Z,1.03
2023-01-17T08:11:56.488Z,0.50
2023-01-17T08:14:23.591Z,0.20
2023-01-17T08:16:50.673Z,0.20
2023-01-17T08:19:17.487Z,0.20
2023-01-17T08:21:44.608Z,0.77
2023-01-17T08:24:13.825Z,0.20
2023-01-17T08:26:41.187Z,0.10
2023-01-17T08:29:08.965Z,0.77
2023-01-17T08:31:36.675Z,0.10
2023-01-17T08:34:04.002Z,0.30
2023-01-17T08:36:31.408Z,0.23
2023-01-17T08:38:58.841Z,0.20
2023-01-17T08:41:27.896Z,0.20
2023-01-17T08:43:55.077Z,0.20
2023-01-17T08:46:22.580Z,0.20
2023-01-17T08:48:54.125Z,0.20
2023-01-17T08:51:21.061Z,0.10
2023-01-17T08:53:48.650Z,0.20
2023-01-17T08:56:15.563Z,0.10
2023-01-17T08:58:42.477Z,0.20
2023-01-17T09:01:09.400Z,0.43
2023-01-17T09:03:38.884Z,0.20
2023-01-17T09:06:13.097Z,0.20
2023-01-17T09:08:40.666Z,0.30
2023-01-17T09:11:12.589Z,0.20
2023-01-17T09:13:40.140Z,0.20
2023-01-17T09:16:08.159Z,0.20
2023-01-17T09:18:36.199Z,0.40
2023-01-17T09:21:13.383Z,0.20
2023-01-17T09:23:41.010Z,0.23
2023-01-17T09:26:14.492Z,0.20
2023-01-17T09:28:42.757Z,0.40
2023-01-17T09:31:09.815Z,0.20
2023-01-17T09:33:37.115Z,0.20
2023-01-17T09:36:05.513Z,0.40
2023-01-17T09:38:33.213Z,0.20
2023-01-17T09:41:02.855Z,0.20
2023-01-17T09:43:49.662Z,0.20
2023-01-17T09:46:42.760Z,0.20
2023-01-17T09:49:38.495Z,0.30
2023-01-17T09:52:08.069Z,0.20
2023-01-17T09:54:38.347Z,0.20
2023-01-17T09:57:18.595Z,0.30
2023-01-17T10:00:12.941Z,0.53
2023-01-17T10:03:06.830Z,0.40
2023-01-17T10:05:45.251Z,0.20
2023-01-17T10:08:24.100Z,0.20
2023-01-17T10:11:18.148Z,0.30
2023-01-17T10:13:54.291Z,0.60
2023-01-17T10:16:32.686Z,1.03
2023-01-17T10:19:23.623Z,0.30
2023-01-17T10:22:31.079Z,0.30
2023-01-17T10:25:07.047Z,0.30
2023-01-17T10:28:10.098Z,0.20
2023-01-17T10:30:54.209Z,0.40
2023-01-17T10:33:52.013Z,0.47
2023-01-17T10:36:25.171Z,0.30
2023-01-17T10:38:56.419Z,0.27
2023-01-17T10:41:23.303Z,0.40
2023-01-17T10:44:27.534Z,0.40
2023-01-17T10:47:01.888Z,0.30
2023-01-17T10:49:28.999Z,0.40
2023-01-17T10:52:19.258Z,0.20
2023-01-17T10:54:46.220Z,0.67
2023-01-17T10:57:23.325Z,0.30
2023-01-17T10:59:51.234Z,0.40
2023-01-17T11:02:33.009Z,0.30
2023-01-17T11:05:11.251Z,0.20
2023-01-17T11:07:40.004Z,0.40
2023-01-17T11:10:07.331Z,0.60
2023-01-17T11:12:41.341Z,0.20
2023-01-17T11:15:11.409Z,0.20
2023-01-17T11:17:46.196Z,0.30
2023-01-17T11:20:23.666Z,0.40
2023-01-17T11:23:21.778Z,0.30
2023-01-17T11:25:59.180Z,0.47
2023-01-17T11:28:30.509Z,0.40
2023-01-17T11:31:09.237Z,0.47
2023-01-17T11:33:45.122Z,0.60
2023-01-17T11:36:22.842Z,1.53
2023-01-17T11:38:58.015Z,0.27
2023-01-17T11:41:28.267Z,0.70
2023-01-17T11:43:58.662Z,0.30
2023-01-17T11:46:28.320Z,0.20
2023-01-17T11:49:01.873Z,0.57
2023-01-17T11:51:32.155Z,0.30
2023-01-17T11:54:19.768Z,0.30
2023-01-17T11:56:46.825Z,0.60
2023-01-17T11:59:27.898Z,0.20
2023-01-17T12:02:33.710Z,0.63
2023-01-17T12:05:24.828Z,0.47
2023-01-17T12:08:20.726Z,0.30
2023-01-17T12:11:25.413Z,0.63
2023-01-17T12:14:26.282Z,0.20
2023-01-17T12:17:22.654Z,0.60
2023-01-17T12:20:04.785Z,0.27
2023-01-17T12:22:43.322Z,0.40
2023-01-17T12:25:31.707Z,0.60
2023-01-17T12:28:08.524Z,0.40
2023-01-17T12:30:41.591Z,1.10
2023-01-17T12:33:30.118Z,0.23
2023-01-17T12:36:02.150Z,0.50
2023-01-17T12:38:41.289Z,0.40
2023-01-17T12:41:54.514Z,0.70
2023-01-17T12:44:43.181Z,0.50
2023-01-17T12:47:10.959Z,0.50
2023-01-17T12:50:16.186Z,0.60
2023-01-17T12:52:45.986Z,0.77
2023-01-17T12:55:19.468Z,0.47
2023-01-17T12:57:54.233Z,0.93
2023-01-17T13:00:25.552Z,0.47
2023-01-17T13:03:18.436Z,0.97
2023-01-17T13:05:48.776Z,0.47
2023-01-17T13:08:20.504Z,1.63
2023-01-17T13:10:58.125Z,2.77
2023-01-17T13:13:27.565Z,0.67
2023-01-17T13:16:16.582Z,3.63
2023-01-17T13:18:49.333Z,2.57
2023-01-17T13:21:29.638Z,2.07
2023-01-17T13:24:15.972Z,1.53
2023-01-17T13:26:57.852Z,1.50
2023-01-17T13:29:43.588Z,1.23
2023-01-17T13:32:36.425Z,0.87
2023-01-17T13:35:48.415Z,0.70
2023-01-17T13:38:43.349Z,0.50
2023-01-17T13:41:31.151Z,0.73
2023-01-17T13:44:19.248Z,0.30
2023-01-17T13:47:24.810Z,0.57
2023-01-17T13:49:56.482Z,2.33
2023-01-17T13:52:29.559Z,3.23
2023-01-17T13:55:05.545Z,4.97
2023-01-17T13:57:43.511Z,2.03
2023-01-17T14:00:16.272Z,1.57
2023-01-17T14:02:43.989Z,3.70
2023-01-17T14:05:17.658Z,3.50
2023-01-17T14:07:55.857Z,4.90
2023-01-17T14:10:40.973Z,2.67
2023-01-17T14:13:39.726Z,0.33
2023-01-17T14:16:31.509Z,0.30
2023-01-17T14:18:58.473Z,0.50
2023-01-17T14:21:34.158Z,0.60
2023-01-17T14:24:10.491Z,2.27
2023-01-17T14:27:14.279Z,0.70
2023-01-17T14:30:00.254Z,0.80
2023-01-17T14:32:33.199Z,0.60
2023-01-17T14:35:00.046Z,0.63
2023-01-17T14:37:30.711Z,1.13
2023-01-17T14:39:58.800Z,0.57
2023-01-17T14:42:29.248Z,0.57
2023-01-17T14:45:09.666Z,0.40
2023-01-17T14:47:41.843Z,0.37
2023-01-17T14:50:17.957Z,0.57
2023-01-17T14:52:47.852Z,1.57
2023-01-17T14:55:19.482Z,0.60
2023-01-17T14:57:56.834Z,0.67
2023-01-17T15:00:25.563Z,0.80
2023-01-17T15:02:53.946Z,0.47
2023-01-17T15:05:23.038Z,0.50
2023-01-17T15:07:55.115Z,1.00
2023-01-17T15:10:27.091Z,0.40
2023-01-17T15:12:56.548Z,1.00
2023-01-17T15:15:30.622Z,1.00
2023-01-17T15:18:19.420Z,0.90
2023-01-17T15:21:15.069Z,3.23
2023-01-17T15:23:49.372Z,1.73
2023-01-17T15:26:18.287Z,0.80
2023-01-17T15:28:45.935Z,1.87
2023-01-17T15:31:14.722Z,0.30
2023-01-17T15:33:52.247Z,0.30
2023-01-17T15:36:30.181Z,0.90
2023-01-17T15:39:00.339Z,1.00
2023-01-17T15:41:34.380Z,0.63
2023-01-17T15:44:02.074Z,0.40
2023-01-17T15:46:44.637Z,0.70
2023-01-17T15:49:17.646Z,0.50
2023-01-17T15:51:49.569Z,1.13
2023-01-17T15:54:47.557Z,0.40
2023-01-17T15:57:28.540Z,1.50
2023-01-17T16:00:21.755Z,0.50
2023-01-17T16:02:56.149Z,0.63
2023-01-17T16:05:26.168Z,0.63
2023-01-17T16:07:58.433Z,0.70
2023-01-17T16:10:28.776Z,0.67
2023-01-17T16:12:56.319Z,1.07
2023-01-17T16:15:24.066Z,0.40
2023-01-17T16:17:56.656Z,1.47
2023-01-17T16:20:28.178Z,0.70
2023-01-17T16:22:55.112Z,0.90
2023-01-17T16:25:23.947Z,0.83
2023-01-17T16:27:52.153Z,0.70
2023-01-17T16:30:21.653Z,0.70
2023-01-17T16:32:49.469Z,1.93
2023-01-17T16:35:22.143Z,0.40
2023-01-17T16:38:00.127Z,0.80
2023-01-17T16:40:30.363Z,0.37
2023-01-17T16:42:58.036Z,0.70
2023-01-17T16:45:25.073Z,0.53
2023-01-17T16:47:53.758Z,0.50
2023-01-17T16:50:23.567Z,0.50
2023-01-17T16:52:54.696Z,0.27
2023-01-17T16:55:24.346Z,0.63
2023-01-17T16:57:54.237Z,0.67
2023-01-17T17:00:22.706Z,0.50
2023-01-17T17:02:51.187Z,0.57
2023-01-17T17:05:18.430Z,0.40
2023-01-17T17:07:50.819Z,1.10
2023-01-17T17:10:20.185Z,0.40
2023-01-17T17:12:47.216Z,0.40
2023-01-17T17:15:14.235Z,0.23
2023-01-17T17:17:43.203Z,0.70
2023-01-17T17:20:13.396Z,0.57
2023-01-17T17:22:43.017Z,0.97
2023-01-17T17:25:11.785Z,0.73
2023-01-17T17:27:38.836Z,0.83
2023-01-17T17:30:06.370Z,0.80
2023-01-17T17:32:33.229Z,0.97
2023-01-17T17:35:00.556Z,0.63
2023-01-17T17:37:30.383Z,0.90
2023-01-17T17:39:57.748Z,0.60
2023-01-17T17:42:24.666Z,0.43
2023-01-17T17:44:51.618Z,0.90
2023-01-17T17:47:18.563Z,0.77
2023-01-17T17:49:45.486Z,0.93
2023-01-17T17:52:12.418Z,0.40
2023-01-17T17:54:39.254Z,0.87
2023-01-17T17:57:06.569Z,1.33
2023-01-17T17:59:33.454Z,0.67
2023-01-17T18:02:00.370Z,0.63
2023-01-17T18:04:27.544Z,0.77
2023-01-17T18:06:58.360Z,1.37
2023-01-17T18:09:25.376Z,0.70
2023-01-17T18:11:52.388Z,1.33
2023-01-17T18:14:21.327Z,0.67
2023-01-17T18:16:48.601Z,1.43
2023-01-17T18:19:18.270Z,0.77
2023-01-17T18:21:45.138Z,0.60
2023-01-17T18:24:16.501Z,1.00
2023-01-17T18:26:56.077Z,0.40
2023-01-17T18:29:24.275Z,0.30
2023-01-17T18:31:52.478Z,0.70
2023-01-17T18:34:23.963Z,1.00
2023-01-17T18:36:52.026Z,0.73
2023-01-17T18:39:27.322Z,0.30
2023-01-17T18:41:54.629Z,0.30
2023-01-17T18:44:22.574Z,0.50
2023-01-17T18:46:50.906Z,0.57
2023-01-17T18:49:19.360Z,0.47
2023-01-17T18:51:50.467Z,0.83
2023-01-17T18:54:18.932Z,0.23
2023-01-17T18:56:45.898Z,0.70
2023-01-17T18:59:13.881Z,0.50
2023-01-17T19:01:44.537Z,0.63
2023-01-17T19:04:12.934Z,0.40
2023-01-17T19:06:43.698Z,0.70
2023-01-17T19:09:11.856Z,0.40
2023-01-17T19:11:39.365Z,0.20
2023-01-17T19:14:07.104Z,0.20
2023-01-17T19:16:39.281Z,0.37
2023-01-17T19:19:09.174Z,0.27
2023-01-17T19:21:36.577Z,0.37
2023-01-17T19:24:03.713Z,0.10
2023-01-17T19:26:30.689Z,0.10
2023-01-17T19:29:05.335Z,0.83
2023-01-17T19:31:36.605Z,0.20
2023-01-17T19:34:03.523Z,0.23
2023-01-17T19:36:36.174Z,0.10
2023-01-17T19:39:06.703Z,0.07
2023-01-17T19:41:36.229Z,0.37
2023-01-17T19:44:08.955Z,0.13
2023-01-17T19:46:36.713Z,0.20
2023-01-17T19:49:06.306Z,0.23
2023-01-17T19:51:33.290Z,0.00
2023-01-17T19:54:01.738Z,0.23
2023-01-17T19:56:29.644Z,0.00
2023-01-17T19:59:01.992Z,0.10
2023-01-17T20:01:32.516Z,0.60
2023-01-17T20:04:01.093Z,0.00
2023-01-17T20:06:30.817Z,0.00
2023-01-17T20:08:57.963Z,0.60
2023-01-17T20:11:26.297Z,0.00
2023-01-17T20:13:55.012Z,0.33
2023-01-17T20:16:23.106Z,0.00
2023-01-17T20:18:50.512Z,0.00
2023-01-17T20:21:22.771Z,0.00
2023-01-17T20:23:51.101Z,0.00
2023-01-17T20:26:20.349Z,0.10
2023-01-17T20:28:49.609Z,0.40
2023-01-17T20:31:19.188Z,0.07
2023-01-17T20:33:47.658Z,0.30
2023-01-17T20:36:15.953Z,0.00
2023-01-17T20:38:44.329Z,0.33
2023-01-17T20:41:13.745Z,0.00
2023-01-17T20:43:42.236Z,0.10
2023-01-17T20:46:10.132Z,0.03
2023-01-17T20:48:39.126Z,0.03
2023-01-17T20:51:10.660Z,0.20
2023-01-17T20:53:39.299Z,0.10
2023-01-17T20:56:08.008Z,0.47
2023-01-17T20:58:35.283Z,0.20
2023-01-17T21:01:02.396Z,0.43
2023-01-17T21:03:33.744Z,0.23
2023-01-17T21:06:08.872Z,0.10
2023-01-17T21:08:38.110Z,0.33
2023-01-17T21:11:06.314Z,0.37
2023-01-17T21:13:33.181Z,0.27
2023-01-17T21:16:00.285Z,0.00
2023-01-17T21:18:29.544Z,0.00
2023-01-17T21:21:07.986Z,0.13
2023-01-17T21:23:39.638Z,0.27
2023-01-17T21:26:07.770Z,0.10
2023-01-17T21:28:39.913Z,0.10
2023-01-17T21:31:23.372Z,0.20
2023-01-17T21:33:59.161Z,0.10
2023-01-17T21:36:28.954Z,0.00
2023-01-17T21:38:58.436Z,0.10
2023-01-17T21:41:28.774Z,0.10
2023-01-17T21:44:10.137Z,0.13
2023-01-17T21:46:38.830Z,0.20
2023-01-17T21:49:07.083Z,0.10
2023-01-17T21:51:55.126Z,0.10
2023-01-17T21:54:47.744Z,0.20
2023-01-17T21:57:36.036Z,0.00
2023-01-17T22:00:08.683Z,0.00
2023-01-17T22:02:35.762Z,0.20
2023-01-17T22:05:02.665Z,0.43
2023-01-17T22:07:29.513Z,0.00
2023-01-17T22:09:57.022Z,0.00
2023-01-17T22:12:23.897Z,0.00
2023-01-17T22:14:50.822Z,0.10
2023-01-17T22:17:17.724Z,0.10
2023-01-17T22:19:46.110Z,0.00
2023-01-17T22:22:13.441Z,0.00
2023-01-17T22:24:40.597Z,0.10
2023-01-17T22:27:10.576Z,0.30
2023-01-17T22:29:38.415Z,0.20
2023-01-17T22:32:05.559Z,0.10
2023-01-17T22:34:32.595Z,0.00
2023-01-17T22:37:00.425Z,0.00
2023-01-17T22:39:27.533Z,0.30
2023-01-17T22:41:54.389Z,0.03
2023-01-17T22:44:21.328Z,0.00
2023-01-17T22:46:48.257Z,0.00
2023-01-17T22:49:16.940Z,0.20
2023-01-17T22:51:43.903Z,0.00
2023-01-17T22:54:11.493Z,0.20
2023-01-17T22:56:38.380Z,0.20
2023-01-17T22:59:11.371Z,0.10
2023-01-17T23:01:42.569Z,0.10
2023-01-17T23:04:13.811Z,0.10
2023-01-17T23:06:41.736Z,0.20
2023-01-17T23:09:14.170Z,0.10
2023-01-17T23:11:47.458Z,0.07
2023-01-17T23:14:53.123Z,0.00
2023-01-17T23:17:40.990Z,0.20
2023-01-17T23:20:09.847Z,0.20
2023-01-17T23:22:37.432Z,0.23
2023-01-17T23:25:13.197Z,0.00
2023-01-17T23:28:00.121Z,0.00
2023-01-17T23:30:34.462Z,0.07
2023-01-17T23:33:03.244Z,0.00
2023-01-17T23:35:33.062Z,0.00
2023-01-17T23:38:18.913Z,0.20
2023-01-17T23:41:04.807Z,0.00
2023-01-17T23:43:32.309Z,0.47
2023-01-17T23:45:59.166Z,0.00
2023-01-17T23:48:26.440Z,0.17
2023-01-17T23:50:59.204Z,0.43
2023-01-17T23:53:26.994Z,0.20
2023-01-17T23:55:59.728Z,0.07
2023-01-17T23:58:28.019Z,0.10
